sensor_id;sensor_type;location;lat;lon;timestamp;temperature;humidity
17726;DHT22;8983;53.156;17.960;2023-11-19T00:01:26;1.60;99.90
17726;DHT22;8983;53.156;17.960;2023-11-19T00:03:54;1.60;99.90
17726;DHT22;8983;53.156;17.960;2023-11-19T00:06:22;1.60;99.90
17726;DHT22;8983;53.156;17.960;2023-11-19T00:08:51;1.60;99.90
17726;DHT22;8983;53.156;17.960;2023-11-19T00:11:19;1.60;99.90
17726;DHT22;8983;53.156;17.960;2023-11-19T00:13:49;1.50;99.90
17726;DHT22;8983;53.156;17.960;2023-11-19T00:16:17;1.50;99.90
17726;DHT22;8983;53.156;17.960;2023-11-19T00:18:46;1.50;99.90
17726;DHT22;8983;53.156;17.960;2023-11-19T00:21:14;1.50;99.90
17726;DHT22;8983;53.156;17.960;2023-11-19T00:23:43;1.40;99.90
17726;DHT22;8983;53.156;17.960;2023-11-19T00:26:11;1.40;99.90
17726;DHT22;8983;53.156;17.960;2023-11-19T00:28:40;1.40;99.90
17726;DHT22;8983;53.156;17.960;2023-11-19T00:31:11;1.40;99.90
17726;DHT22;8983;53.156;17.960;2023-11-19T00:33:39;1.30;99.90
17726;DHT22;8983;53.156;17.960;2023-11-19T00:36:10;1.30;99.90
17726;DHT22;8983;53.156;17.960;2023-11-19T00:38:39;1.30;99.90
17726;DHT22;8983;53.156;17.960;2023-11-19T00:41:07;1.30;99.90
17726;DHT22;8983;53.156;17.960;2023-11-19T00:43:35;1.30;99.90
17726;DHT22;8983;53.156;17.960;2023-11-19T00:46:07;1.20;99.90
17726;DHT22;8983;53.156;17.960;2023-11-19T00:48:39;1.20;99.90
17726;DHT22;8983;53.156;17.960;2023-11-19T00:51:07;1.30;99.90
17726;DHT22;8983;53.156;17.960;2023-11-19T00:53:35;1.30;99.90
17726;DHT22;8983;53.156;17.960;2023-11-19T00:56:02;1.30;99.90
17726;DHT22;8983;53.156;17.960;2023-11-19T00:58:30;1.30;99.90
17726;DHT22;8983;53.156;17.960;2023-11-19T01:00:59;1.30;99.90
17726;DHT22;8983;53.156;17.960;2023-11-19T01:03:27;1.30;99.90
17726;DHT22;8983;53.156;17.960;2023-11-19T01:05:56;1.30;99.90
17726;DHT22;8983;53.156;17.960;2023-11-19T01:08:26;1.30;99.90
17726;DHT22;8983;53.156;17.960;2023-11-19T01:10:54;1.30;99.90
17726;DHT22;8983;53.156;17.960;2023-11-19T01:13:22;1.20;99.90
17726;DHT22;8983;53.156;17.960;2023-11-19T01:15:51;1.20;99.90
17726;DHT22;8983;53.156;17.960;2023-11-19T01:18:19;1.20;99.90
17726;DHT22;8983;53.156;17.960;2023-11-19T01:20:48;1.10;99.90
17726;DHT22;8983;53.156;17.960;2023-11-19T01:23:17;1.10;99.90
17726;DHT22;8983;53.156;17.960;2023-11-19T01:25:45;1.10;99.90
17726;DHT22;8983;53.156;17.960;2023-11-19T01:28:15;1.00;99.90
17726;DHT22;8983;53.156;17.960;2023-11-19T01:30:43;1.10;99.90
17726;DHT22;8983;53.156;17.960;2023-11-19T01:33:11;1.00;99.90
17726;DHT22;8983;53.156;17.960;2023-11-19T01:35:39;1.00;99.90
17726;DHT22;8983;53.156;17.960;2023-11-19T01:38:08;0.90;99.90
17726;DHT22;8983;53.156;17.960;2023-11-19T01:44:13;0.90;99.90
17726;DHT22;8983;53.156;17.960;2023-11-19T01:46:42;0.80;99.90
17726;DHT22;8983;53.156;17.960;2023-11-19T01:49:12;0.80;99.90
17726;DHT22;8983;53.156;17.960;2023-11-19T01:51:42;0.80;99.90
17726;DHT22;8983;53.156;17.960;2023-11-19T01:54:10;0.80;99.90
17726;DHT22;8983;53.156;17.960;2023-11-19T01:56:40;0.80;99.90
17726;DHT22;8983;53.156;17.960;2023-11-19T01:59:10;0.80;99.90
17726;DHT22;8983;53.156;17.960;2023-11-19T02:01:42;0.80;99.90
17726;DHT22;8983;53.156;17.960;2023-11-19T02:04:11;0.80;99.90
17726;DHT22;8983;53.156;17.960;2023-11-19T02:06:42;0.80;99.90
17726;DHT22;8983;53.156;17.960;2023-11-19T02:09:11;0.80;99.90
17726;DHT22;8983;53.156;17.960;2023-11-19T02:11:40;0.70;99.90
17726;DHT22;8983;53.156;17.960;2023-11-19T02:14:08;0.70;99.90
17726;DHT22;8983;53.156;17.960;2023-11-19T02:16:37;0.80;99.90
17726;DHT22;8983;53.156;17.960;2023-11-19T02:19:07;0.70;99.90
17726;DHT22;8983;53.156;17.960;2023-11-19T02:21:37;0.80;99.90
17726;DHT22;8983;53.156;17.960;2023-11-19T02:24:07;0.80;99.90
17726;DHT22;8983;53.156;17.960;2023-11-19T02:26:43;0.80;99.90
17726;DHT22;8983;53.156;17.960;2023-11-19T02:29:14;0.70;99.90
17726;DHT22;8983;53.156;17.960;2023-11-19T02:31:42;0.70;99.90
17726;DHT22;8983;53.156;17.960;2023-11-19T02:34:10;0.70;99.90
17726;DHT22;8983;53.156;17.960;2023-11-19T02:36:39;0.70;99.90
17726;DHT22;8983;53.156;17.960;2023-11-19T02:39:09;0.80;99.90
17726;DHT22;8983;53.156;17.960;2023-11-19T02:41:39;0.80;99.90
17726;DHT22;8983;53.156;17.960;2023-11-19T02:44:07;0.80;99.90
17726;DHT22;8983;53.156;17.960;2023-11-19T02:46:37;0.80;99.90
17726;DHT22;8983;53.156;17.960;2023-11-19T02:49:05;0.90;99.90
17726;DHT22;8983;53.156;17.960;2023-11-19T02:51:33;0.90;99.90
17726;DHT22;8983;53.156;17.960;2023-11-19T02:54:02;0.90;99.90
17726;DHT22;8983;53.156;17.960;2023-11-19T02:56:31;1.00;99.90
17726;DHT22;8983;53.156;17.960;2023-11-19T02:59:03;1.00;99.90
17726;DHT22;8983;53.156;17.960;2023-11-19T03:01:43;1.00;99.90
17726;DHT22;8983;53.156;17.960;2023-11-19T03:04:17;1.00;99.90
17726;DHT22;8983;53.156;17.960;2023-11-19T03:06:46;1.20;99.90
17726;DHT22;8983;53.156;17.960;2023-11-19T03:09:15;1.10;99.90
17726;DHT22;8983;53.156;17.960;2023-11-19T03:11:43;1.00;99.90
17726;DHT22;8983;53.156;17.960;2023-11-19T03:14:11;1.10;99.90
17726;DHT22;8983;53.156;17.960;2023-11-19T03:16:39;1.10;99.90
17726;DHT22;8983;53.156;17.960;2023-11-19T03:19:09;1.20;99.90
17726;DHT22;8983;53.156;17.960;2023-11-19T03:21:37;1.20;99.90
17726;DHT22;8983;53.156;17.960;2023-11-19T03:24:05;1.20;99.90
17726;DHT22;8983;53.156;17.960;2023-11-19T03:26:35;1.20;99.90
17726;DHT22;8983;53.156;17.960;2023-11-19T03:29:04;1.20;99.90
17726;DHT22;8983;53.156;17.960;2023-11-19T03:31:32;1.30;99.90
17726;DHT22;8983;53.156;17.960;2023-11-19T03:34:00;1.30;99.90
17726;DHT22;8983;53.156;17.960;2023-11-19T03:36:33;1.30;99.90
17726;DHT22;8983;53.156;17.960;2023-11-19T03:39:01;1.30;99.90
17726;DHT22;8983;53.156;17.960;2023-11-19T03:41:30;1.40;99.90
17726;DHT22;8983;53.156;17.960;2023-11-19T03:44:01;1.30;99.90
17726;DHT22;8983;53.156;17.960;2023-11-19T03:46:29;1.30;99.90
17726;DHT22;8983;53.156;17.960;2023-11-19T03:48:57;1.30;99.90
17726;DHT22;8983;53.156;17.960;2023-11-19T03:51:26;1.30;99.90
17726;DHT22;8983;53.156;17.960;2023-11-19T03:53:56;1.30;99.90
17726;DHT22;8983;53.156;17.960;2023-11-19T03:56:24;1.30;99.90
17726;DHT22;8983;53.156;17.960;2023-11-19T03:58:52;1.30;99.90
17726;DHT22;8983;53.156;17.960;2023-11-19T04:01:21;1.30;99.90
17726;DHT22;8983;53.156;17.960;2023-11-19T04:03:49;1.30;99.90
17726;DHT22;8983;53.156;17.960;2023-11-19T04:06:17;1.30;99.90
17726;DHT22;8983;53.156;17.960;2023-11-19T04:08:45;1.30;99.90
17726;DHT22;8983;53.156;17.960;2023-11-19T04:11:15;1.30;99.90
17726;DHT22;8983;53.156;17.960;2023-11-19T04:13:43;1.30;99.90
17726;DHT22;8983;53.156;17.960;2023-11-19T04:16:11;1.50;99.90
17726;DHT22;8983;53.156;17.960;2023-11-19T04:18:41;1.40;99.90
17726;DHT22;8983;53.156;17.960;2023-11-19T04:21:09;1.40;99.90
17726;DHT22;8983;53.156;17.960;2023-11-19T04:23:38;1.30;99.90
17726;DHT22;8983;53.156;17.960;2023-11-19T04:26:06;1.30;99.90
17726;DHT22;8983;53.156;17.960;2023-11-19T04:28:38;1.30;99.90
17726;DHT22;8983;53.156;17.960;2023-11-19T04:31:07;1.40;99.90
17726;DHT22;8983;53.156;17.960;2023-11-19T04:33:36;1.40;99.90
17726;DHT22;8983;53.156;17.960;2023-11-19T04:36:05;1.40;99.90
17726;DHT22;8983;53.156;17.960;2023-11-19T04:38:34;1.40;99.90
17726;DHT22;8983;53.156;17.960;2023-11-19T04:41:02;1.40;99.90
17726;DHT22;8983;53.156;17.960;2023-11-19T04:43:32;1.40;99.90
17726;DHT22;8983;53.156;17.960;2023-11-19T04:46:03;1.30;99.90
17726;DHT22;8983;53.156;17.960;2023-11-19T04:48:31;1.40;99.90
17726;DHT22;8983;53.156;17.960;2023-11-19T04:51:05;1.40;99.90
17726;DHT22;8983;53.156;17.960;2023-11-19T04:53:33;1.30;99.90
17726;DHT22;8983;53.156;17.960;2023-11-19T04:56:01;1.40;99.90
17726;DHT22;8983;53.156;17.960;2023-11-19T04:58:35;1.40;99.90
17726;DHT22;8983;53.156;17.960;2023-11-19T05:01:05;1.40;99.90
17726;DHT22;8983;53.156;17.960;2023-11-19T05:03:34;1.40;99.90
17726;DHT22;8983;53.156;17.960;2023-11-19T05:06:04;1.40;99.90
17726;DHT22;8983;53.156;17.960;2023-11-19T05:08:32;1.40;99.90
17726;DHT22;8983;53.156;17.960;2023-11-19T05:11:00;1.40;99.90
17726;DHT22;8983;53.156;17.960;2023-11-19T05:13:28;1.40;99.90
17726;DHT22;8983;53.156;17.960;2023-11-19T05:15:56;1.40;99.90
17726;DHT22;8983;53.156;17.960;2023-11-19T05:18:26;1.40;99.90
17726;DHT22;8983;53.156;17.960;2023-11-19T05:20:54;1.40;99.90
17726;DHT22;8983;53.156;17.960;2023-11-19T05:23:22;1.40;99.90
17726;DHT22;8983;53.156;17.960;2023-11-19T05:25:50;1.40;99.90
17726;DHT22;8983;53.156;17.960;2023-11-19T05:28:18;1.40;99.90
17726;DHT22;8983;53.156;17.960;2023-11-19T05:30:46;1.40;99.90
17726;DHT22;8983;53.156;17.960;2023-11-19T05:33:14;1.30;99.90
17726;DHT22;8983;53.156;17.960;2023-11-19T05:35:44;1.40;99.90
17726;DHT22;8983;53.156;17.960;2023-11-19T05:38:12;1.40;99.90
17726;DHT22;8983;53.156;17.960;2023-11-19T05:40:41;1.40;99.90
17726;DHT22;8983;53.156;17.960;2023-11-19T05:43:09;1.40;99.90
17726;DHT22;8983;53.156;17.960;2023-11-19T05:45:37;1.40;99.90
17726;DHT22;8983;53.156;17.960;2023-11-19T05:48:05;1.50;99.90
17726;DHT22;8983;53.156;17.960;2023-11-19T05:50:33;1.40;99.90
17726;DHT22;8983;53.156;17.960;2023-11-19T05:53:03;1.40;99.90
17726;DHT22;8983;53.156;17.960;2023-11-19T05:55:36;1.40;99.90
17726;DHT22;8983;53.156;17.960;2023-11-19T05:58:11;1.40;99.90
17726;DHT22;8983;53.156;17.960;2023-11-19T06:00:40;1.40;99.90
17726;DHT22;8983;53.156;17.960;2023-11-19T06:03:08;1.40;99.90
17726;DHT22;8983;53.156;17.960;2023-11-19T06:05:37;1.40;99.90
17726;DHT22;8983;53.156;17.960;2023-11-19T06:08:07;1.50;99.90
17726;DHT22;8983;53.156;17.960;2023-11-19T06:10:35;1.40;99.90
17726;DHT22;8983;53.156;17.960;2023-11-19T06:13:03;1.40;99.90
17726;DHT22;8983;53.156;17.960;2023-11-19T06:15:33;1.40;99.90
17726;DHT22;8983;53.156;17.960;2023-11-19T06:18:01;1.50;99.90
17726;DHT22;8983;53.156;17.960;2023-11-19T06:20:30;1.50;99.90
17726;DHT22;8983;53.156;17.960;2023-11-19T06:23:11;1.50;99.90
17726;DHT22;8983;53.156;17.960;2023-11-19T06:25:40;1.50;99.90
17726;DHT22;8983;53.156;17.960;2023-11-19T06:28:08;1.50;99.90
17726;DHT22;8983;53.156;17.960;2023-11-19T06:30:36;1.50;99.90
17726;DHT22;8983;53.156;17.960;2023-11-19T06:33:05;1.50;99.90
17726;DHT22;8983;53.156;17.960;2023-11-19T06:35:33;1.50;99.90
17726;DHT22;8983;53.156;17.960;2023-11-19T06:38:04;1.50;99.90
17726;DHT22;8983;53.156;17.960;2023-11-19T06:40:34;1.50;99.90
17726;DHT22;8983;53.156;17.960;2023-11-19T06:43:03;1.50;99.90
17726;DHT22;8983;53.156;17.960;2023-11-19T06:45:32;1.50;99.90
17726;DHT22;8983;53.156;17.960;2023-11-19T06:48:01;1.50;99.90
17726;DHT22;8983;53.156;17.960;2023-11-19T06:50:30;1.50;99.90
17726;DHT22;8983;53.156;17.960;2023-11-19T06:52:58;1.50;99.90
17726;DHT22;8983;53.156;17.960;2023-11-19T06:55:27;1.50;99.90
17726;DHT22;8983;53.156;17.960;2023-11-19T06:57:56;1.50;99.90
17726;DHT22;8983;53.156;17.960;2023-11-19T07:00:24;1.50;99.90
17726;DHT22;8983;53.156;17.960;2023-11-19T07:02:53;1.60;99.90
17726;DHT22;8983;53.156;17.960;2023-11-19T07:05:22;1.60;99.90
17726;DHT22;8983;53.156;17.960;2023-11-19T07:07:51;1.60;99.90
17726;DHT22;8983;53.156;17.960;2023-11-19T07:10:20;1.60;99.90
17726;DHT22;8983;53.156;17.960;2023-11-19T07:12:49;1.60;99.90
17726;DHT22;8983;53.156;17.960;2023-11-19T07:15:19;1.60;99.90
17726;DHT22;8983;53.156;17.960;2023-11-19T07:17:47;1.70;99.90
17726;DHT22;8983;53.156;17.960;2023-11-19T07:20:28;1.60;99.90
17726;DHT22;8983;53.156;17.960;2023-11-19T07:22:58;1.70;99.90
17726;DHT22;8983;53.156;17.960;2023-11-19T07:25:26;1.70;99.90
17726;DHT22;8983;53.156;17.960;2023-11-19T07:27:54;1.70;99.90
17726;DHT22;8983;53.156;17.960;2023-11-19T07:30:24;1.70;99.90
17726;DHT22;8983;53.156;17.960;2023-11-19T07:32:52;1.70;99.90
17726;DHT22;8983;53.156;17.960;2023-11-19T07:35:20;1.70;99.90
17726;DHT22;8983;53.156;17.960;2023-11-19T07:37:48;1.70;99.90
17726;DHT22;8983;53.156;17.960;2023-11-19T07:40:17;1.80;99.90
17726;DHT22;8983;53.156;17.960;2023-11-19T07:42:45;1.80;99.90
17726;DHT22;8983;53.156;17.960;2023-11-19T07:45:14;1.80;99.90
17726;DHT22;8983;53.156;17.960;2023-11-19T07:47:44;1.80;99.90
17726;DHT22;8983;53.156;17.960;2023-11-19T07:50:12;1.80;99.90
17726;DHT22;8983;53.156;17.960;2023-11-19T07:52:43;1.80;99.90
17726;DHT22;8983;53.156;17.960;2023-11-19T07:55:12;1.80;99.90
17726;DHT22;8983;53.156;17.960;2023-11-19T07:57:39;1.80;99.90
17726;DHT22;8983;53.156;17.960;2023-11-19T08:00:08;1.80;99.90
17726;DHT22;8983;53.156;17.960;2023-11-19T08:02:39;1.90;99.90
17726;DHT22;8983;53.156;17.960;2023-11-19T08:05:09;1.90;99.90
17726;DHT22;8983;53.156;17.960;2023-11-19T08:07:38;1.90;99.90
17726;DHT22;8983;53.156;17.960;2023-11-19T08:10:07;1.90;99.90
17726;DHT22;8983;53.156;17.960;2023-11-19T08:12:37;1.90;99.90
17726;DHT22;8983;53.156;17.960;2023-11-19T08:15:06;1.90;99.90
17726;DHT22;8983;53.156;17.960;2023-11-19T08:17:35;2.00;99.90
17726;DHT22;8983;53.156;17.960;2023-11-19T08:20:04;2.00;99.90
17726;DHT22;8983;53.156;17.960;2023-11-19T08:22:38;2.00;99.90
17726;DHT22;8983;53.156;17.960;2023-11-19T08:25:07;2.00;99.90
17726;DHT22;8983;53.156;17.960;2023-11-19T08:27:36;2.00;99.90
17726;DHT22;8983;53.156;17.960;2023-11-19T08:30:05;2.00;99.90
17726;DHT22;8983;53.156;17.960;2023-11-19T08:32:34;2.00;99.90
17726;DHT22;8983;53.156;17.960;2023-11-19T08:35:03;2.10;99.90
17726;DHT22;8983;53.156;17.960;2023-11-19T08:37:32;2.10;99.90
17726;DHT22;8983;53.156;17.960;2023-11-19T08:40:06;2.10;99.90
17726;DHT22;8983;53.156;17.960;2023-11-19T08:42:34;2.10;99.90
17726;DHT22;8983;53.156;17.960;2023-11-19T08:45:03;2.00;99.90
17726;DHT22;8983;53.156;17.960;2023-11-19T08:47:32;2.00;99.90
17726;DHT22;8983;53.156;17.960;2023-11-19T08:50:00;2.10;99.90
17726;DHT22;8983;53.156;17.960;2023-11-19T08:52:30;2.10;99.90
17726;DHT22;8983;53.156;17.960;2023-11-19T08:55:01;2.10;99.90
17726;DHT22;8983;53.156;17.960;2023-11-19T08:57:31;2.10;99.90
17726;DHT22;8983;53.156;17.960;2023-11-19T08:59:59;2.10;99.90
17726;DHT22;8983;53.156;17.960;2023-11-19T09:02:27;2.10;99.90
17726;DHT22;8983;53.156;17.960;2023-11-19T09:04:55;2.10;99.90
17726;DHT22;8983;53.156;17.960;2023-11-19T09:07:24;2.10;99.90
17726;DHT22;8983;53.156;17.960;2023-11-19T09:09:52;2.20;99.90
17726;DHT22;8983;53.156;17.960;2023-11-19T09:12:20;2.20;99.90
17726;DHT22;8983;53.156;17.960;2023-11-19T09:14:51;2.20;99.90
17726;DHT22;8983;53.156;17.960;2023-11-19T09:17:19;2.20;99.90
17726;DHT22;8983;53.156;17.960;2023-11-19T09:19:47;2.20;99.90
17726;DHT22;8983;53.156;17.960;2023-11-19T09:22:15;2.20;99.90
17726;DHT22;8983;53.156;17.960;2023-11-19T09:24:43;2.20;99.90
17726;DHT22;8983;53.156;17.960;2023-11-19T09:27:11;2.20;99.90
17726;DHT22;8983;53.156;17.960;2023-11-19T09:29:39;2.20;99.90
17726;DHT22;8983;53.156;17.960;2023-11-19T09:32:09;2.20;99.90
17726;DHT22;8983;53.156;17.960;2023-11-19T09:34:37;2.20;99.90
17726;DHT22;8983;53.156;17.960;2023-11-19T09:37:05;2.20;99.90
17726;DHT22;8983;53.156;17.960;2023-11-19T09:39:47;2.20;99.90
17726;DHT22;8983;53.156;17.960;2023-11-19T09:42:16;2.20;99.90
17726;DHT22;8983;53.156;17.960;2023-11-19T09:44:45;2.30;99.90
17726;DHT22;8983;53.156;17.960;2023-11-19T09:47:17;2.30;99.90
17726;DHT22;8983;53.156;17.960;2023-11-19T09:49:47;2.30;99.90
17726;DHT22;8983;53.156;17.960;2023-11-19T09:52:16;2.30;99.90
17726;DHT22;8983;53.156;17.960;2023-11-19T09:54:44;2.40;99.90
17726;DHT22;8983;53.156;17.960;2023-11-19T09:57:15;2.40;99.90
17726;DHT22;8983;53.156;17.960;2023-11-19T09:59:45;2.40;99.90
17726;DHT22;8983;53.156;17.960;2023-11-19T10:02:16;2.40;99.90
17726;DHT22;8983;53.156;17.960;2023-11-19T10:04:46;2.30;99.90
17726;DHT22;8983;53.156;17.960;2023-11-19T10:07:14;2.40;99.90
17726;DHT22;8983;53.156;17.960;2023-11-19T10:09:42;2.40;99.90
17726;DHT22;8983;53.156;17.960;2023-11-19T10:12:10;2.40;99.90
17726;DHT22;8983;53.156;17.960;2023-11-19T10:14:40;2.40;99.90
17726;DHT22;8983;53.156;17.960;2023-11-19T10:17:10;2.60;99.90
17726;DHT22;8983;53.156;17.960;2023-11-19T10:19:41;2.50;99.90
17726;DHT22;8983;53.156;17.960;2023-11-19T10:22:10;2.50;99.90
17726;DHT22;8983;53.156;17.960;2023-11-19T10:24:38;2.50;99.90
17726;DHT22;8983;53.156;17.960;2023-11-19T10:27:14;2.40;99.90
17726;DHT22;8983;53.156;17.960;2023-11-19T10:29:45;2.50;99.90
17726;DHT22;8983;53.156;17.960;2023-11-19T10:32:13;2.50;99.90
17726;DHT22;8983;53.156;17.960;2023-11-19T10:35:04;2.50;99.90
17726;DHT22;8983;53.156;17.960;2023-11-19T10:37:33;2.50;99.90
17726;DHT22;8983;53.156;17.960;2023-11-19T10:40:05;2.40;99.90
17726;DHT22;8983;53.156;17.960;2023-11-19T10:42:37;2.40;99.90
17726;DHT22;8983;53.156;17.960;2023-11-19T10:45:07;2.40;99.90
17726;DHT22;8983;53.156;17.960;2023-11-19T10:47:50;2.40;99.90
17726;DHT22;8983;53.156;17.960;2023-11-19T10:50:20;2.40;99.90
17726;DHT22;8983;53.156;17.960;2023-11-19T10:52:52;2.50;99.90
17726;DHT22;8983;53.156;17.960;2023-11-19T10:55:27;2.40;99.90
17726;DHT22;8983;53.156;17.960;2023-11-19T10:57:59;2.40;99.90
17726;DHT22;8983;53.156;17.960;2023-11-19T11:00:29;2.50;99.90
17726;DHT22;8983;53.156;17.960;2023-11-19T11:03:01;2.50;99.90
17726;DHT22;8983;53.156;17.960;2023-11-19T11:05:32;2.50;99.90
17726;DHT22;8983;53.156;17.960;2023-11-19T11:08:01;2.50;99.90
17726;DHT22;8983;53.156;17.960;2023-11-19T11:10:32;2.50;99.90
17726;DHT22;8983;53.156;17.960;2023-11-19T11:13:03;2.50;99.90
17726;DHT22;8983;53.156;17.960;2023-11-19T11:15:33;2.60;99.90
17726;DHT22;8983;53.156;17.960;2023-11-19T11:18:02;2.50;99.90
17726;DHT22;8983;53.156;17.960;2023-11-19T11:20:33;2.50;99.90
17726;DHT22;8983;53.156;17.960;2023-11-19T11:23:17;2.50;99.90
17726;DHT22;8983;53.156;17.960;2023-11-19T11:25:57;2.50;99.90
17726;DHT22;8983;53.156;17.960;2023-11-19T11:28:35;2.50;99.90
17726;DHT22;8983;53.156;17.960;2023-11-19T11:31:26;2.40;99.90
17726;DHT22;8983;53.156;17.960;2023-11-19T11:36:56;2.40;99.90
17726;DHT22;8983;53.156;17.960;2023-11-19T11:39:29;2.30;99.90
17726;DHT22;8983;53.156;17.960;2023-11-19T11:42:32;2.30;99.90
17726;DHT22;8983;53.156;17.960;2023-11-19T11:45:02;2.30;99.90
17726;DHT22;8983;53.156;17.960;2023-11-19T11:50:54;2.20;99.90
17726;DHT22;8983;53.156;17.960;2023-11-19T11:53:25;2.20;99.90
17726;DHT22;8983;53.156;17.960;2023-11-19T11:55:58;2.20;99.90
17726;DHT22;8983;53.156;17.960;2023-11-19T11:58:32;2.20;99.90
17726;DHT22;8983;53.156;17.960;2023-11-19T12:01:02;2.10;99.90
17726;DHT22;8983;53.156;17.960;2023-11-19T12:03:32;2.30;99.90
17726;DHT22;8983;53.156;17.960;2023-11-19T12:06:01;2.30;99.90
17726;DHT22;8983;53.156;17.960;2023-11-19T12:08:34;2.10;99.90
17726;DHT22;8983;53.156;17.960;2023-11-19T12:11:19;2.20;99.90
17726;DHT22;8983;53.156;17.960;2023-11-19T12:13:54;2.10;99.90
17726;DHT22;8983;53.156;17.960;2023-11-19T12:16:29;2.10;99.90
17726;DHT22;8983;53.156;17.960;2023-11-19T12:19:03;2.10;99.90
17726;DHT22;8983;53.156;17.960;2023-11-19T12:21:32;2.10;99.90
17726;DHT22;8983;53.156;17.960;2023-11-19T12:24:06;2.10;99.90
17726;DHT22;8983;53.156;17.960;2023-11-19T12:26:37;2.10;99.90
17726;DHT22;8983;53.156;17.960;2023-11-19T12:29:06;2.10;99.90
17726;DHT22;8983;53.156;17.960;2023-11-19T12:31:36;2.10;99.90
17726;DHT22;8983;53.156;17.960;2023-11-19T12:34:08;2.00;99.90
17726;DHT22;8983;53.156;17.960;2023-11-19T12:36:40;2.10;99.90
17726;DHT22;8983;53.156;17.960;2023-11-19T12:39:11;2.10;99.90
17726;DHT22;8983;53.156;17.960;2023-11-19T12:41:52;2.00;99.90
17726;DHT22;8983;53.156;17.960;2023-11-19T12:44:21;2.00;99.90
17726;DHT22;8983;53.156;17.960;2023-11-19T12:47:00;1.90;99.90
17726;DHT22;8983;53.156;17.960;2023-11-19T12:49:29;1.90;99.90
17726;DHT22;8983;53.156;17.960;2023-11-19T12:51:57;1.80;99.90
17726;DHT22;8983;53.156;17.960;2023-11-19T12:54:36;1.90;99.90
17726;DHT22;8983;53.156;17.960;2023-11-19T12:57:05;1.90;99.90
17726;DHT22;8983;53.156;17.960;2023-11-19T12:59:34;1.90;99.90
17726;DHT22;8983;53.156;17.960;2023-11-19T13:02:02;1.90;99.90
17726;DHT22;8983;53.156;17.960;2023-11-19T13:04:33;2.00;99.90
17726;DHT22;8983;53.156;17.960;2023-11-19T13:07:01;2.00;99.90
17726;DHT22;8983;53.156;17.960;2023-11-19T13:09:32;2.00;99.90
17726;DHT22;8983;53.156;17.960;2023-11-19T13:12:12;2.10;99.90
17726;DHT22;8983;53.156;17.960;2023-11-19T13:14:41;2.10;99.90
17726;DHT22;8983;53.156;17.960;2023-11-19T13:17:13;2.10;99.90
17726;DHT22;8983;53.156;17.960;2023-11-19T13:19:43;2.10;99.90
17726;DHT22;8983;53.156;17.960;2023-11-19T13:22:11;2.10;99.90
17726;DHT22;8983;53.156;17.960;2023-11-19T13:24:39;2.10;99.90
17726;DHT22;8983;53.156;17.960;2023-11-19T13:27:11;2.10;99.90
17726;DHT22;8983;53.156;17.960;2023-11-19T13:29:39;2.00;99.90
17726;DHT22;8983;53.156;17.960;2023-11-19T13:32:07;2.10;99.90
17726;DHT22;8983;53.156;17.960;2023-11-19T13:34:35;2.00;99.90
17726;DHT22;8983;53.156;17.960;2023-11-19T13:37:04;2.00;99.90
17726;DHT22;8983;53.156;17.960;2023-11-19T13:39:32;2.00;99.90
17726;DHT22;8983;53.156;17.960;2023-11-19T13:42:00;2.00;99.90
17726;DHT22;8983;53.156;17.960;2023-11-19T13:44:33;2.00;99.90
17726;DHT22;8983;53.156;17.960;2023-11-19T13:47:01;2.00;99.90
17726;DHT22;8983;53.156;17.960;2023-11-19T13:49:29;2.00;99.90
17726;DHT22;8983;53.156;17.960;2023-11-19T13:51:57;2.10;99.90
17726;DHT22;8983;53.156;17.960;2023-11-19T13:54:26;2.00;99.90
17726;DHT22;8983;53.156;17.960;2023-11-19T13:56:55;2.00;99.90
17726;DHT22;8983;53.156;17.960;2023-11-19T13:59:25;2.00;99.90
17726;DHT22;8983;53.156;17.960;2023-11-19T14:01:54;2.00;99.90
17726;DHT22;8983;53.156;17.960;2023-11-19T14:04:22;2.00;99.90
17726;DHT22;8983;53.156;17.960;2023-11-19T14:06:51;2.00;99.90
17726;DHT22;8983;53.156;17.960;2023-11-19T14:09:32;2.00;99.90
17726;DHT22;8983;53.156;17.960;2023-11-19T14:12:01;2.00;99.90
17726;DHT22;8983;53.156;17.960;2023-11-19T14:14:30;1.90;99.90
17726;DHT22;8983;53.156;17.960;2023-11-19T14:16:59;1.90;99.90
17726;DHT22;8983;53.156;17.960;2023-11-19T14:19:32;2.00;99.90
17726;DHT22;8983;53.156;17.960;2023-11-19T14:22:01;1.90;99.90
17726;DHT22;8983;53.156;17.960;2023-11-19T14:24:29;1.90;99.90
17726;DHT22;8983;53.156;17.960;2023-11-19T14:26:57;1.90;99.90
17726;DHT22;8983;53.156;17.960;2023-11-19T14:29:26;1.90;99.90
17726;DHT22;8983;53.156;17.960;2023-11-19T14:31:55;1.90;99.90
17726;DHT22;8983;53.156;17.960;2023-11-19T14:34:25;1.90;99.90
17726;DHT22;8983;53.156;17.960;2023-11-19T14:36:53;1.90;99.90
17726;DHT22;8983;53.156;17.960;2023-11-19T14:39:21;1.90;99.90
17726;DHT22;8983;53.156;17.960;2023-11-19T14:41:50;1.90;99.90
17726;DHT22;8983;53.156;17.960;2023-11-19T14:44:19;1.90;99.90
17726;DHT22;8983;53.156;17.960;2023-11-19T14:46:47;1.80;99.90
17726;DHT22;8983;53.156;17.960;2023-11-19T14:49:15;1.80;99.90
17726;DHT22;8983;53.156;17.960;2023-11-19T14:51:45;1.90;99.90
17726;DHT22;8983;53.156;17.960;2023-11-19T14:54:15;1.90;99.90
17726;DHT22;8983;53.156;17.960;2023-11-19T14:56:43;1.80;99.90
17726;DHT22;8983;53.156;17.960;2023-11-19T14:59:11;1.80;99.90
17726;DHT22;8983;53.156;17.960;2023-11-19T15:01:39;1.80;99.90
17726;DHT22;8983;53.156;17.960;2023-11-19T15:04:07;1.80;99.90
17726;DHT22;8983;53.156;17.960;2023-11-19T15:06:36;1.80;99.90
17726;DHT22;8983;53.156;17.960;2023-11-19T15:09:05;1.80;99.90
17726;DHT22;8983;53.156;17.960;2023-11-19T15:11:34;1.90;99.90
17726;DHT22;8983;53.156;17.960;2023-11-19T15:14:03;1.90;99.90
17726;DHT22;8983;53.156;17.960;2023-11-19T15:16:33;1.90;99.90
17726;DHT22;8983;53.156;17.960;2023-11-19T15:19:01;1.90;99.90
17726;DHT22;8983;53.156;17.960;2023-11-19T15:21:30;1.90;99.90
17726;DHT22;8983;53.156;17.960;2023-11-19T15:23:59;1.90;99.90
17726;DHT22;8983;53.156;17.960;2023-11-19T15:26:29;1.90;99.90
17726;DHT22;8983;53.156;17.960;2023-11-19T15:28:57;1.90;99.90
17726;DHT22;8983;53.156;17.960;2023-11-19T15:31:25;1.90;99.90
17726;DHT22;8983;53.156;17.960;2023-11-19T15:33:53;1.90;99.90
17726;DHT22;8983;53.156;17.960;2023-11-19T15:36:22;1.90;99.90
17726;DHT22;8983;53.156;17.960;2023-11-19T15:38:50;1.90;99.90
17726;DHT22;8983;53.156;17.960;2023-11-19T15:41:19;1.90;99.90
17726;DHT22;8983;53.156;17.960;2023-11-19T15:43:49;1.90;99.90
17726;DHT22;8983;53.156;17.960;2023-11-19T15:46:17;1.90;99.90
17726;DHT22;8983;53.156;17.960;2023-11-19T15:48:45;1.90;99.90
17726;DHT22;8983;53.156;17.960;2023-11-19T15:51:13;1.90;99.90
17726;DHT22;8983;53.156;17.960;2023-11-19T15:53:41;1.90;99.90
17726;DHT22;8983;53.156;17.960;2023-11-19T15:56:10;1.90;99.90
17726;DHT22;8983;53.156;17.960;2023-11-19T15:58:38;1.90;99.90
17726;DHT22;8983;53.156;17.960;2023-11-19T16:01:08;1.90;99.90
17726;DHT22;8983;53.156;17.960;2023-11-19T16:03:36;1.90;99.90
17726;DHT22;8983;53.156;17.960;2023-11-19T16:06:08;1.90;99.90
17726;DHT22;8983;53.156;17.960;2023-11-19T16:08:37;1.90;99.90
17726;DHT22;8983;53.156;17.960;2023-11-19T16:11:06;1.90;99.90